createdAt,value
2017-10-28T00:00:18.064Z,95917.63
2017-10-28T00:02:46.421Z,95912.84
2017-10-28T00:05:14.763Z,95907.42
2017-10-28T00:07:43.106Z,95909.31
2017-10-28T00:10:11.448Z,95909.41
2017-10-28T00:12:39.810Z,95922.47
2017-10-28T00:15:08.141Z,95908.89
2017-10-28T00:17:36.485Z,95903.24
2017-10-28T00:20:04.835Z,95899.87
2017-10-28T00:22:33.196Z,95906.24
2017-10-28T00:25:01.606Z,95890.69
2017-10-28T00:27:29.971Z,95891.37
2017-10-28T00:29:58.319Z,95886.44
2017-10-28T00:32:32.215Z,95871.18
2017-10-28T00:35:06.170Z,95866.13
2017-10-28T00:37:34.518Z,95855.23
2017-10-28T00:40:02.884Z,95852.26
2017-10-28T00:42:31.227Z,95837.89
2017-10-28T00:44:59.571Z,95837.89
2017-10-28T00:47:27.932Z,95843.25
2017-10-28T00:49:56.306Z,95829.88
2017-10-28T00:52:24.657Z,95845.44
2017-10-28T00:54:53.034Z,95826.84
2017-10-28T00:57:21.380Z,95831.95
2017-10-28T00:59:49.757Z,95832.06
2017-10-28T01:02:18.107Z,95817.91
2017-10-28T01:04:46.487Z,95811.47
2017-10-28T01:07:14.828Z,95811.97
2017-10-28T01:09:43.172Z,95812.61
2017-10-28T01:12:11.510Z,95807.25
2017-10-28T01:14:39.917Z,95803.28
2017-10-28T01:17:08.296Z,95798.42
2017-10-28T01:19:36.642Z,95793.27
2017-10-28T01:22:05.014Z,95791.19
2017-10-28T01:24:33.359Z,95800.31
2017-10-28T01:27:01.699Z,95775.80
2017-10-28T01:29:30.084Z,95773.72
2017-10-28T01:31:58.419Z,95770.14
2017-10-28T01:34:26.757Z,95772.61
2017-10-28T01:36:55.096Z,95746.98
2017-10-28T01:39:23.431Z,95758.56
2017-10-28T01:41:51.771Z,95751.81
2017-10-28T01:44:20.140Z,95748.84
2017-10-28T01:46:48.478Z,95742.70
2017-10-28T01:49:16.847Z,95732.91
2017-10-28T01:51:45.192Z,95724.69
2017-10-28T01:54:13.558Z,95719.47
2017-10-28T01:56:41.914Z,95714.03
2017-10-28T01:59:10.254Z,95702.29
2017-10-28T02:01:38.584Z,95700.80
2017-10-28T02:04:06.932Z,95699.09
2017-10-28T02:06:35.300Z,95705.64
2017-10-28T02:09:03.643Z,95706.98
2017-10-28T02:11:32.014Z,95691.16
2017-10-28T02:14:00.352Z,95718.30
2017-10-28T02:16:28.724Z,95696.92
2017-10-28T02:18:57.074Z,95687.08
2017-10-28T02:21:25.412Z,95682.92
2017-10-28T02:23:53.749Z,95678.57
2017-10-28T02:26:22.123Z,95656.41
2017-10-28T02:28:50.462Z,95672.59
2017-10-28T02:31:18.814Z,95670.86
2017-10-28T02:33:47.183Z,95660.28
2017-10-28T02:36:15.527Z,95671.77
2017-10-28T02:38:43.968Z,95659.89
2017-10-28T02:41:13.274Z,95673.44
2017-10-28T02:43:41.627Z,95664.32
2017-10-28T02:46:10.019Z,95659.01
2017-10-28T02:48:38.367Z,95647.20
2017-10-28T02:51:06.695Z,95642.70
2017-10-28T02:53:35.070Z,95653.17
2017-10-28T02:56:03.424Z,95641.66
2017-10-28T02:58:32.519Z,95642.17
2017-10-28T03:01:00.883Z,95620.58
2017-10-28T03:03:29.247Z,95630.87
2017-10-28T03:05:57.595Z,95629.69
2017-10-28T03:08:25.969Z,95653.45
2017-10-28T03:10:54.314Z,95647.70
2017-10-28T03:13:22.691Z,95638.80
2017-10-28T03:15:51.069Z,95642.27
2017-10-28T03:18:19.411Z,95637.36
2017-10-28T03:20:47.782Z,95617.50
2017-10-28T03:23:16.130Z,95605.13
2017-10-28T03:25:44.475Z,95615.14
2017-10-28T03:28:12.818Z,95610.73
2017-10-28T03:30:41.163Z,95599.22
2017-10-28T03:33:09.531Z,95585.11
2017-10-28T03:35:37.868Z,95591.10
2017-10-28T03:38:06.238Z,95597.16
2017-10-28T03:40:34.578Z,95604.52
2017-10-28T03:43:02.941Z,95603.19
2017-10-28T03:45:31.362Z,95591.58
2017-10-28T03:47:59.736Z,95585.74
2017-10-28T03:50:28.149Z,95552.90
2017-10-28T03:52:56.507Z,95547.34
2017-10-28T03:55:24.844Z,95537.73
2017-10-28T03:57:53.177Z,95548.98
2017-10-28T04:00:21.559Z,95530.45
2017-10-28T04:02:49.927Z,95529.16
2017-10-28T04:05:18.281Z,95524.13
2017-10-28T04:07:46.617Z,95524.92
2017-10-28T04:10:14.959Z,95513.50
2017-10-28T04:12:43.328Z,95509.13
2017-10-28T04:15:11.688Z,95514.50
2017-10-28T04:17:40.063Z,95521.55
2017-10-28T04:20:08.426Z,95517.21
2017-10-28T04:22:36.770Z,95539.02
2017-10-28T04:25:05.168Z,95533.91
2017-10-28T04:27:33.511Z,95550.12
2017-10-28T04:30:01.885Z,95524.71
2017-10-28T04:32:30.227Z,95511.57
2017-10-28T04:34:58.571Z,95508.47
2017-10-28T04:37:26.924Z,95518.27
2017-10-28T04:39:55.268Z,95508.05
2017-10-28T04:42:23.602Z,95489.78
2017-10-28T04:44:51.935Z,95474.67
2017-10-28T04:47:20.278Z,95451.70
2017-10-28T04:49:48.647Z,95467.80
2017-10-28T04:52:16.993Z,95469.52
2017-10-28T04:54:45.335Z,95468.70
2017-10-28T04:57:13.670Z,95466.77
2017-10-28T04:59:42.031Z,95456.39
2017-10-28T05:02:10.371Z,95432.82
2017-10-28T05:04:38.752Z,95426.63
2017-10-28T05:07:07.132Z,95436.61
2017-10-28T05:09:35.475Z,95422.45
2017-10-28T05:12:03.815Z,95421.55
2017-10-28T05:14:32.152Z,95419.84
2017-10-28T05:17:00.524Z,95416.53
2017-10-28T05:19:28.866Z,95416.81
2017-10-28T05:21:57.206Z,95413.67
2017-10-28T05:24:25.574Z,95403.66
2017-10-28T05:26:53.919Z,95400.97
2017-10-28T05:29:22.272Z,95421.28
2017-10-28T05:31:50.616Z,95391.83
2017-10-28T05:34:18.950Z,95390.72
2017-10-28T05:36:47.295Z,95390.80
2017-10-28T05:39:15.663Z,95411.32
2017-10-28T05:41:44.031Z,95408.62
2017-10-28T05:44:12.390Z,95417.42
2017-10-28T05:46:40.739Z,95397.34
2017-10-28T05:49:09.095Z,95370.80
2017-10-28T05:51:37.725Z,95372.77
2017-10-28T05:54:06.121Z,95362.16
2017-10-28T05:56:34.532Z,95345.94
2017-10-28T05:59:02.890Z,95348.75
2017-10-28T06:01:31.235Z,95358.63
2017-10-28T06:03:59.618Z,95353.75
2017-10-28T06:06:27.965Z,95362.77
2017-10-28T06:08:56.355Z,95352.85
2017-10-28T06:11:24.884Z,95349.13
2017-10-28T06:13:53.232Z,95350.27
2017-10-28T06:16:21.768Z,95340.09
2017-10-28T06:18:50.169Z,95338.64
2017-10-28T06:21:18.688Z,95346.18
2017-10-28T06:23:47.031Z,95342.94
2017-10-28T06:26:15.408Z,95313.35
2017-10-28T06:28:43.758Z,95292.04
2017-10-28T06:31:12.223Z,95312.16
2017-10-28T06:33:40.571Z,95306.90
2017-10-28T06:36:09.165Z,95306.05
2017-10-28T06:38:37.643Z,95327.36
2017-10-28T06:41:06.019Z,95325.98
2017-10-28T06:43:34.405Z,95325.14
2017-10-28T06:46:02.750Z,95327.18
2017-10-28T06:48:31.087Z,95316.05
2017-10-28T06:50:59.439Z,95321.53
2017-10-28T06:53:27.818Z,95323.63
2017-10-28T06:55:56.160Z,95322.69
2017-10-28T06:58:24.507Z,95332.20
2017-10-28T07:00:52.886Z,95340.80
2017-10-28T07:03:21.226Z,95341.65
2017-10-28T07:05:49.579Z,95334.43
2017-10-28T07:08:17.963Z,95334.27
2017-10-28T07:10:46.302Z,95337.17
2017-10-28T07:13:14.647Z,95329.78
2017-10-28T07:15:42.984Z,95330.35
2017-10-28T07:18:11.359Z,95330.23
2017-10-28T07:20:39.703Z,95326.44
2017-10-28T07:23:08.043Z,95337.84
2017-10-28T07:25:36.395Z,95334.66
2017-10-28T07:28:04.780Z,95345.29
2017-10-28T07:30:33.129Z,95347.08
2017-10-28T07:33:01.471Z,95352.48
2017-10-28T07:35:29.810Z,95353.56
2017-10-28T07:37:58.147Z,95353.71
2017-10-28T07:40:26.503Z,95356.81
2017-10-28T07:42:54.884Z,95342.80
2017-10-28T07:45:23.209Z,95337.84
2017-10-28T07:47:51.594Z,95339.89
2017-10-28T07:50:19.951Z,95332.42
2017-10-28T07:52:48.287Z,95313.01
2017-10-28T07:55:16.647Z,95282.02
2017-10-28T07:57:44.984Z,95269.67
2017-10-28T08:00:13.329Z,95268.91
2017-10-28T08:02:41.675Z,95249.71
2017-10-28T08:05:10.051Z,95262.60
2017-10-28T08:07:38.399Z,95252.39
2017-10-28T08:10:06.748Z,95257.82
2017-10-28T08:12:35.084Z,95274.78
2017-10-28T08:15:03.435Z,95271.58
2017-10-28T08:17:31.781Z,95281.28
2017-10-28T08:20:00.160Z,95283.15
2017-10-28T08:22:28.469Z,95272.84
2017-10-28T08:24:56.816Z,95270.29
2017-10-28T08:27:25.156Z,95271.89
2017-10-28T08:29:53.529Z,95286.53
2017-10-28T08:32:21.856Z,95284.37
2017-10-28T08:34:50.194Z,95271.98
2017-10-28T08:37:19.311Z,95279.05
2017-10-28T08:39:47.646Z,95272.02
2017-10-28T08:42:15.982Z,95264.38
2017-10-28T08:44:44.321Z,95267.84
2017-10-28T08:47:12.647Z,95263.73
2017-10-28T08:49:41.016Z,95255.75
2017-10-28T08:52:09.361Z,95252.67
2017-10-28T08:54:37.710Z,95256.36
2017-10-28T08:57:06.052Z,95236.28
2017-10-28T08:59:34.386Z,95245.83
2017-10-28T09:02:02.727Z,95228.40
2017-10-28T09:04:31.098Z,95225.36
2017-10-28T09:06:59.452Z,95214.48
2017-10-28T09:09:27.826Z,95210.27
2017-10-28T09:11:56.166Z,95240.48
2017-10-28T09:14:24.514Z,95247.31
2017-10-28T09:16:52.857Z,95228.77
2017-10-28T09:19:21.199Z,95245.45
2017-10-28T09:21:49.543Z,95237.54
2017-10-28T09:24:17.886Z,95238.22
2017-10-28T09:26:46.233Z,95219.06
2017-10-28T09:29:14.563Z,95232.47
2017-10-28T09:31:42.917Z,95249.53
2017-10-28T09:34:11.249Z,95226.98
2017-10-28T09:36:39.609Z,95222.39
2017-10-28T09:39:07.961Z,95217.98
2017-10-28T09:41:36.306Z,95211.09
2017-10-28T09:44:04.650Z,95220.30
2017-10-28T09:46:33.018Z,95218.66
2017-10-28T09:49:01.367Z,95213.55
2017-10-28T09:51:29.715Z,95204.88
2017-10-28T09:53:58.055Z,95217.94
2017-10-28T09:56:26.473Z,95207.86
2017-10-28T09:58:54.815Z,95197.84
2017-10-28T10:01:23.172Z,95191.41
2017-10-28T10:03:51.516Z,95202.57
2017-10-28T10:06:19.855Z,95195.85
2017-10-28T10:08:48.228Z,95192.20
2017-10-28T10:11:16.563Z,95199.43
2017-10-28T10:13:44.902Z,95213.06
2017-10-28T10:16:13.246Z,95205.66
2017-10-28T10:18:41.596Z,95201.64
2017-10-28T10:21:09.942Z,95188.06
2017-10-28T10:23:38.297Z,95183.14
2017-10-28T10:26:06.635Z,95190.28
2017-10-28T10:28:34.975Z,95174.48
2017-10-28T10:31:03.351Z,95186.80
2017-10-28T10:33:31.688Z,95182.32
2017-10-28T10:36:00.035Z,95186.22
2017-10-28T10:38:28.374Z,95162.58
2017-10-28T10:40:56.717Z,95160.55
2017-10-28T10:43:25.055Z,95157.52
2017-10-28T10:45:53.474Z,95149.92
2017-10-28T10:48:21.855Z,95148.46
2017-10-28T10:50:50.207Z,95159.27
2017-10-28T10:53:18.650Z,95157.47
2017-10-28T10:55:47.007Z,95146.80
2017-10-28T10:58:15.355Z,95131.27
2017-10-28T11:00:43.700Z,95138.97
2017-10-28T11:03:12.051Z,95144.77
2017-10-28T11:05:40.393Z,95140.06
2017-10-28T11:08:08.732Z,95130.03
2017-10-28T11:10:37.085Z,95130.47
2017-10-28T11:13:05.426Z,95121.50
2017-10-28T11:15:33.804Z,95108.66
2017-10-28T11:18:02.297Z,95111.56
2017-10-28T11:20:30.882Z,95113.33
2017-10-28T11:22:59.332Z,95094.77
2017-10-28T11:25:27.880Z,95102.86
2017-10-28T11:27:56.464Z,95097.48
2017-10-28T11:30:24.905Z,95105.67
2017-10-28T11:32:53.544Z,95093.89
2017-10-28T11:35:22.125Z,95090.93
2017-10-28T11:37:50.788Z,95096.18
2017-10-28T11:40:19.214Z,95085.31
2017-10-28T11:42:47.581Z,95065.66
2017-10-28T11:45:16.146Z,95062.67
2017-10-28T11:47:44.829Z,95071.13
2017-10-28T11:50:13.388Z,95055.67
2017-10-28T11:52:41.937Z,95045.00
2017-10-28T11:55:10.463Z,95040.06
2017-10-28T11:57:39.022Z,95051.44
2017-10-28T12:00:07.686Z,95051.66
2017-10-28T12:02:36.217Z,95046.49
2017-10-28T12:05:04.880Z,95040.76
2017-10-28T12:07:33.388Z,95037.20
2017-10-28T12:10:01.792Z,95027.16
2017-10-28T12:12:30.497Z,95019.90
2017-10-28T12:14:58.955Z,95018.44
2017-10-28T12:17:27.454Z,95005.55
2017-10-28T12:19:56.165Z,95014.06
2017-10-28T12:22:26.435Z,95020.48
2017-10-28T12:24:55.076Z,95004.67
2017-10-28T12:27:23.710Z,95004.88
2017-10-28T12:29:53.246Z,95003.05
2017-10-28T12:32:22.768Z,94994.59
2017-10-28T12:34:51.408Z,94984.91
2017-10-28T12:37:20.051Z,94968.55
2017-10-28T12:39:48.700Z,94969.27
2017-10-28T12:42:17.323Z,94970.77
2017-10-28T12:44:45.926Z,94959.52
2017-10-28T12:47:14.409Z,94956.54
2017-10-28T12:49:42.889Z,94956.89
2017-10-28T12:52:11.525Z,94949.44
2017-10-28T12:54:40.007Z,94941.76
2017-10-28T12:57:08.605Z,94935.46
2017-10-28T12:59:37.106Z,94931.38
2017-10-28T13:02:05.651Z,94931.20
2017-10-28T13:04:34.302Z,94916.81
2017-10-28T13:07:02.927Z,94912.30
2017-10-28T13:09:31.423Z,94907.50
2017-10-28T13:11:59.945Z,94905.09
2017-10-28T13:14:28.533Z,94912.15
2017-10-28T13:16:57.162Z,94898.92
2017-10-28T13:19:25.704Z,94904.73
2017-10-28T13:21:54.277Z,94899.77
2017-10-28T13:24:22.797Z,94879.70
2017-10-28T13:26:51.457Z,94882.87
2017-10-28T13:29:20.004Z,94896.20
2017-10-28T13:31:48.573Z,94883.11
2017-10-28T13:34:17.177Z,94881.25
2017-10-28T13:36:45.887Z,94880.94
2017-10-28T13:39:14.495Z,94881.09
2017-10-28T13:41:43.124Z,94890.83
2017-10-28T13:44:11.912Z,94870.99
2017-10-28T13:46:40.400Z,94862.65
2017-10-28T13:49:09.005Z,94865.84
2017-10-28T13:51:37.435Z,94874.47
2017-10-28T13:54:05.857Z,94873.70
2017-10-28T13:56:34.330Z,94860.84
2017-10-28T13:59:02.934Z,94863.67
2017-10-28T14:01:31.537Z,94861.11
2017-10-28T14:04:00.726Z,94869.62
2017-10-28T14:06:29.233Z,94864.51
2017-10-28T14:08:57.770Z,94866.45
2017-10-28T14:11:26.476Z,94872.07
2017-10-28T14:13:55.005Z,94881.42
2017-10-28T14:16:23.614Z,94883.30
2017-10-28T14:18:52.166Z,94877.64
2017-10-28T14:21:20.797Z,94879.36
2017-10-28T14:23:49.332Z,94875.43
2017-10-28T14:26:18.038Z,94881.60
2017-10-28T14:28:46.697Z,94862.79
2017-10-28T14:31:15.377Z,94859.70
2017-10-28T14:33:43.863Z,94863.87
2017-10-28T14:36:12.477Z,94847.84
2017-10-28T14:38:41.166Z,94841.31
2017-10-28T14:41:09.664Z,94839.33
2017-10-28T14:43:38.065Z,94840.61
2017-10-28T14:46:07.511Z,94833.52
2017-10-28T14:48:35.873Z,94827.78
2017-10-28T14:51:04.288Z,94835.86
2017-10-28T14:53:32.629Z,94816.73
2017-10-28T14:56:00.974Z,94828.28
2017-10-28T14:58:29.410Z,94830.36
2017-10-28T15:00:57.800Z,94829.39
2017-10-28T15:03:26.227Z,94824.23
2017-10-28T15:05:54.580Z,94830.28
2017-10-28T15:08:23.169Z,94831.05
2017-10-28T15:10:51.533Z,94831.27
2017-10-28T15:13:20.213Z,94821.27
2017-10-28T15:15:48.715Z,94818.87
2017-10-28T15:18:17.055Z,94811.36
2017-10-28T15:20:45.464Z,94822.33
2017-10-28T15:23:13.832Z,94823.52
2017-10-28T15:25:42.356Z,94810.92
2017-10-28T15:28:10.883Z,94828.08
2017-10-28T15:30:39.572Z,94806.66
2017-10-28T15:33:08.048Z,94807.75
2017-10-28T15:35:36.435Z,94795.92
2017-10-28T15:38:04.767Z,94795.70
2017-10-28T15:40:33.171Z,94783.09
2017-10-28T15:43:01.568Z,94789.19
2017-10-28T15:45:30.086Z,94775.91
2017-10-28T15:47:58.468Z,94778.77
2017-10-28T15:50:26.933Z,94777.28
2017-10-28T15:52:55.282Z,94771.92
2017-10-28T15:55:23.811Z,94776.81
2017-10-28T15:57:52.221Z,94777.08
2017-10-28T16:00:20.659Z,94777.50
2017-10-28T16:02:49.185Z,94765.50
2017-10-28T16:05:17.615Z,94772.28
2017-10-28T16:07:46.001Z,94767.56
2017-10-28T16:10:14.376Z,94763.08
2017-10-28T16:12:42.795Z,94765.04
2017-10-28T16:15:11.281Z,94767.81
2017-10-28T16:17:39.634Z,94763.11
2017-10-28T16:20:08.231Z,94751.50
2017-10-28T16:22:36.874Z,94749.91
2017-10-28T16:25:05.276Z,94735.31
2017-10-28T16:27:33.607Z,94736.97
2017-10-28T16:30:02.192Z,94731.67
2017-10-28T16:32:30.799Z,94727.53
2017-10-28T16:34:59.341Z,94729.34
2017-10-28T16:37:27.821Z,94731.23
2017-10-28T16:39:56.229Z,94715.45
2017-10-28T16:42:24.608Z,94721.44
2017-10-28T16:44:53.000Z,94711.81
2017-10-28T16:47:21.348Z,94696.64
2017-10-28T16:49:49.718Z,94706.10
2017-10-28T16:52:18.343Z,94692.34
2017-10-28T16:54:46.997Z,94687.48
2017-10-28T16:57:15.339Z,94686.16
2017-10-28T16:59:43.792Z,94687.06
2017-10-28T17:02:12.171Z,94684.23
2017-10-28T17:04:40.591Z,94693.69
2017-10-28T17:07:08.947Z,94685.57
2017-10-28T17:09:37.321Z,94664.63
2017-10-28T17:12:08.854Z,94675.79
2017-10-28T17:14:38.546Z,94668.40
2017-10-28T17:17:10.325Z,94673.06
2017-10-28T17:19:38.702Z,94668.88
2017-10-28T17:22:07.074Z,94662.02
2017-10-28T17:24:35.453Z,94660.64
2017-10-28T17:27:03.799Z,94650.94
2017-10-28T17:29:32.300Z,94648.05
2017-10-28T17:32:00.692Z,94625.69
2017-10-28T17:34:29.042Z,94637.67
2017-10-28T17:36:57.547Z,94639.25
2017-10-28T17:39:25.896Z,94641.53
2017-10-28T17:41:54.231Z,94644.64
2017-10-28T17:44:22.635Z,94638.39
2017-10-28T17:46:50.985Z,94624.53
2017-10-28T17:49:19.378Z,94624.02
2017-10-28T17:51:47.766Z,94627.19
2017-10-28T17:54:16.123Z,94616.28
2017-10-28T17:56:44.490Z,94604.05
2017-10-28T17:59:12.832Z,94607.77
2017-10-28T18:01:41.178Z,94605.53
2017-10-28T18:04:09.549Z,94604.04
2017-10-28T18:06:38.174Z,94593.61
2017-10-28T18:09:06.550Z,94583.58
2017-10-28T18:11:34.901Z,94596.37
2017-10-28T18:14:03.544Z,94585.95
2017-10-28T18:16:31.899Z,94598.17
2017-10-28T18:19:00.243Z,94592.17
2017-10-28T18:21:28.676Z,94586.08
2017-10-28T18:23:57.019Z,94573.39
2017-10-28T18:26:25.544Z,94571.31
2017-10-28T18:28:54.122Z,94571.59
2017-10-28T18:31:22.492Z,94565.28
2017-10-28T18:33:50.899Z,94542.54
2017-10-28T18:36:19.343Z,94541.27
2017-10-28T18:38:47.762Z,94532.81
2017-10-28T18:41:16.590Z,94537.11
2017-10-28T18:43:45.039Z,94532.02
2017-10-28T18:46:13.439Z,94533.73
2017-10-28T18:48:41.963Z,94520.05
2017-10-28T18:51:10.341Z,94533.72
2017-10-28T18:53:38.861Z,94518.56
2017-10-28T18:56:07.314Z,94522.71
2017-10-28T18:58:35.653Z,94512.15
2017-10-28T19:01:04.327Z,94508.03
2017-10-28T19:03:32.695Z,94496.52
2017-10-28T19:06:01.340Z,94486.50
2017-10-28T19:08:29.706Z,94472.23
2017-10-28T19:10:58.277Z,94480.10
2017-10-28T19:13:26.660Z,94468.84
2017-10-28T19:15:55.334Z,94464.84
2017-10-28T19:18:23.836Z,94459.00
2017-10-28T19:20:52.170Z,94466.78
2017-10-28T19:23:21.207Z,94439.41
2017-10-28T19:25:49.525Z,94436.04
2017-10-28T19:28:17.895Z,94425.47
2017-10-28T19:30:46.260Z,94434.40
2017-10-28T19:33:14.690Z,94432.76
2017-10-28T19:35:43.288Z,94414.59
2017-10-28T19:38:11.773Z,94404.64
2017-10-28T19:40:40.236Z,94411.39
2017-10-28T19:43:08.683Z,94400.55
2017-10-28T19:45:37.250Z,94408.78
2017-10-28T19:48:06.545Z,94401.68
2017-10-28T19:50:34.917Z,94390.59
2017-10-28T19:53:03.255Z,94392.17
2017-10-28T19:55:31.592Z,94374.34
2017-10-28T19:58:00.001Z,94366.18
2017-10-28T20:00:28.364Z,94364.17
2017-10-28T20:02:56.701Z,94378.11
2017-10-28T20:05:25.044Z,94370.73
2017-10-28T20:07:53.397Z,94358.70
2017-10-28T20:10:21.770Z,94345.19
2017-10-28T20:12:50.132Z,94331.61
2017-10-28T20:15:18.511Z,94329.26
2017-10-28T20:17:46.906Z,94321.77
2017-10-28T20:20:15.275Z,94304.28
2017-10-28T20:22:43.734Z,94296.73
2017-10-28T20:25:12.088Z,94304.60
2017-10-28T20:27:40.444Z,94305.03
2017-10-28T20:30:08.806Z,94296.90
2017-10-28T20:32:37.151Z,94299.74
2017-10-28T20:35:05.519Z,94300.41
2017-10-28T20:37:33.891Z,94292.17
2017-10-28T20:40:02.259Z,94287.14
2017-10-28T20:42:30.640Z,94301.88
2017-10-28T20:44:59.018Z,94278.64
2017-10-28T20:47:27.424Z,94277.64
2017-10-28T20:49:55.766Z,94268.47
2017-10-28T20:52:24.154Z,94262.31
2017-10-28T20:54:52.485Z,94261.51
2017-10-28T20:57:20.819Z,94246.69
2017-10-28T20:59:49.160Z,94247.73
2017-10-28T21:02:17.534Z,94246.30
2017-10-28T21:04:45.897Z,94225.51
2017-10-28T21:07:14.244Z,94220.88
2017-10-28T21:09:42.579Z,94206.03
2017-10-28T21:12:11.010Z,94216.09
2017-10-28T21:14:39.520Z,94208.34
2017-10-28T21:17:08.010Z,94191.69
2017-10-28T21:19:36.508Z,94193.39
2017-10-28T21:22:04.910Z,94186.01
2017-10-28T21:24:33.285Z,94180.33
2017-10-28T21:27:01.913Z,94174.69
2017-10-28T21:29:30.996Z,94174.56
2017-10-28T21:31:59.378Z,94166.27
2017-10-28T21:34:27.979Z,94161.89
2017-10-28T21:36:56.350Z,94163.45
2017-10-28T21:39:24.984Z,94152.44
2017-10-28T21:41:53.315Z,94137.20
2017-10-28T21:44:21.709Z,94133.84
2017-10-28T21:46:50.209Z,94115.95
2017-10-28T21:49:18.706Z,94117.80
2017-10-28T21:51:47.115Z,94110.94
2017-10-28T21:54:15.486Z,94094.38
2017-10-28T21:56:43.833Z,94099.29
2017-10-28T21:59:12.177Z,94082.12
2017-10-28T22:01:40.515Z,94086.36
2017-10-28T22:04:08.859Z,94065.43
2017-10-28T22:06:37.232Z,94063.56
2017-10-28T22:09:05.578Z,94062.24
2017-10-28T22:11:33.946Z,94065.98
2017-10-28T22:14:02.318Z,94062.63
2017-10-28T22:16:30.883Z,94053.58
2017-10-28T22:18:59.309Z,94032.74
2017-10-28T22:21:28.673Z,94043.23
2017-10-28T22:23:57.098Z,94034.81
2017-10-28T22:26:25.572Z,94029.56
2017-10-28T22:28:53.968Z,94018.48
2017-10-28T22:31:22.475Z,94016.03
2017-10-28T22:33:50.851Z,94001.24
2017-10-28T22:36:19.206Z,94019.36
2017-10-28T22:38:47.638Z,94027.60
2017-10-28T22:41:16.100Z,94019.07
2017-10-28T22:43:44.435Z,93997.09
2017-10-28T22:46:12.819Z,93984.10
2017-10-28T22:48:41.156Z,93975.95
2017-10-28T22:51:09.535Z,93944.98
2017-10-28T22:53:37.884Z,93958.66
2017-10-28T22:56:06.223Z,93946.45
2017-10-28T22:58:34.570Z,93952.09
2017-10-28T23:01:03.047Z,93939.81
2017-10-28T23:03:31.378Z,93915.25
2017-10-28T23:05:59.727Z,93916.30
2017-10-28T23:08:28.076Z,93947.98
2017-10-28T23:10:56.421Z,93912.45
2017-10-28T23:13:24.795Z,93929.67
2017-10-28T23:15:53.147Z,93907.91
2017-10-28T23:18:21.514Z,93889.52
2017-10-28T23:20:49.862Z,93888.22
2017-10-28T23:23:18.211Z,93908.72
2017-10-28T23:25:46.639Z,93879.59
2017-10-28T23:28:14.982Z,93876.50
2017-10-28T23:30:43.336Z,93886.48
2017-10-28T23:33:11.706Z,93895.84
2017-10-28T23:35:40.050Z,93879.77
2017-10-28T23:38:08.427Z,93867.84
2017-10-28T23:40:36.763Z,93886.92
2017-10-28T23:43:05.131Z,93867.78
2017-10-28T23:45:33.509Z,93879.82
2017-10-28T23:48:01.856Z,93856.34
2017-10-28T23:50:30.222Z,93840.05
2017-10-28T23:52:58.559Z,93841.70
2017-10-28T23:55:26.903Z,93839.66
2017-10-28T23:57:55.248Z,93843.78
